Last 30 days

Temperature [°C]

Date Min. Avg. Max.
2017-10-22 6,40 10,89 16,50
2017-10-23 2,80 6,95 9,80
2017-10-24 0,90 7,85 15,90
2017-10-25 10,90 14,10 17,70
2017-10-26 9,40 11,47 14,20
2017-10-27 6,20 9,07 11,50
2017-10-28 7,80 9,66 11,30
2017-10-29 3,20 7,13 10,50
2017-10-30 2,00 4,44 8,00
2017-10-31 0,30 5,44 10,10
2017-11-01 7,50 9,81 11,80
2017-11-02 7,70 9,57 11,60
2017-11-03 1,80 7,79 11,10
2017-11-04 3,00 6,31 10,60
2017-11-05 4,20 8,51 14,60
2017-11-06 -1,30 6,31 8,90
2017-11-07 -3,10 2,55 7,00
2017-11-08 3,90 6,64 8,30
2017-11-09 5,10 5,56 6,70
2017-11-10 4,30 5,96 7,00
2017-11-11 2,80 3,81 5,00
2017-11-12 1,30 1,30 1,30
2017-11-13 2,40 2,40 2,40
2017-11-14 -2,60 -2,60 -2,60
2017-11-19 4,30 4,30 4,30
2017-11-20 0,00 0,00 0,00
2017-11-21 1,20 1,20 1,20

Humidity [%]

Date Min. Avg. Max.
2017-10-22 100 100 100
2017-10-23 100 100 100
2017-10-24 100 100 100
2017-10-25 100 100 100
2017-10-26 100 100 100
2017-10-27 100 100 100
2017-10-28 100 100 100
2017-10-29 83 98 100
2017-10-30 63 92 100
2017-10-31 100 100 100
2017-11-01 100 100 100
2017-11-02 100 100 100
2017-11-03 100 100 100
2017-11-04 100 100 100
2017-11-05 100 100 100
2017-11-06 100 100 100
2017-11-07 100 100 100
2017-11-08 100 100 100
2017-11-09 100 100 100
2017-11-10 100 100 100
2017-11-11 100 100 100
2017-11-12 100 100 100
2017-11-13 100 100 100
2017-11-14 100 100 100
2017-11-19 100 100 100
2017-11-20 100 100 100
2017-11-21 100 100 100

Pressure [hPa]

Date Min. Avg. Max.
2017-10-22 1 011 1 012 1 012
2017-10-23 1 013 1 016 1 021
2017-10-24 1 020 1 023 1 025
2017-10-25 1 015 1 017 1 020
2017-10-26 1 017 1 020 1 022
2017-10-27 1 012 1 016 1 021
2017-10-28 995 1 007 1 019
2017-10-29 982 995 1 008
2017-10-30 1 008 1 016 1 022
2017-10-31 1 020 1 022 1 023
2017-11-01 1 013 1 016 1 020
2017-11-02 1 008 1 009 1 013
2017-11-03 1 013 1 016 1 018
2017-11-04 1 008 1 013 1 017
2017-11-05 1 006 1 007 1 008
2017-11-07 1 024 1 025 1 026
2017-11-08 1 023 1 024 1 024
2017-11-09 1 018 1 021 1 024
2017-11-10 1 003 1 010 1 018
2017-11-11 1 002 1 003 1 005
2017-11-12 1 001 1 002 1 004
2017-11-13 1 004 1 012 1 019
2017-11-14 1 019 1 021 1 022
2017-11-17 1 021 1 023 1 025
2017-11-18 1 007 1 013 1 022
2017-11-19 1 002 1 004 1 009
2017-11-20 1 009 1 012 1 014
2017-11-21 1 012 1 012 1 013

Wind speed [m/s]

Date Min. Avg. Max.
2017-10-22 1,5 2,3 4,1
2017-10-23 0,5 2,1 4,1
2017-10-24 0,5 3,2 5,7
2017-10-25 2,6 4,5 7,7
2017-10-26 2,6 4,0 6,2
2017-10-27 2,6 4,9 6,7
2017-10-28 2,6 5,9 9,3
2017-10-29 5,1 8,3 13,4
2017-10-30 2,1 6,8 10,3
2017-10-31 1,5 3,3 9,8
2017-11-01 2,6 3,8 5,7
2017-11-02 2,6 4,2 6,2
2017-11-03 1,5 2,9 4,6
2017-11-04 1,5 4,4 6,7
2017-11-05 3,1 4,2 5,1
2017-11-07 2,1 2,5 3,1
2017-11-08 2,1 2,9 4,6
2017-11-09 1,5 2,8 4,6
2017-11-10 2,6 4,4 6,7
2017-11-11 2,6 5,1 8,7
2017-11-12 1,5 3,4 8,2
2017-11-13 0,5 2,9 5,7
2017-11-14 1,5 3,0 6,2
2017-11-17 1,5 3,4 5,7
2017-11-18 1,5 4,8 8,2
2017-11-19 3,6 6,6 10,3
2017-11-20 1,0 3,8 8,7
2017-11-21 1,5 2,1 3,1

Temperature Internal [°C]

Date Min. Avg. Max.
2017-10-22 21,5 21,7 21,8
2017-10-23 20,8 21,2 21,7
2017-10-24 19,8 20,9 21,8
2017-10-25 20,4 21,2 22,3
2017-10-26 20,3 21,4 22,6
2017-10-27 20,1 20,7 21,4
2017-10-28 19,4 20,2 21,2
2017-10-29 18,8 19,5 20,5
2017-10-30 18,1 18,8 19,8
2017-10-31 18,4 19,9 21,0
2017-11-01 19,4 20,5 22,1
2017-11-02 19,1 20,2 21,9
2017-11-03 20,4 21,0 22,2
2017-11-04 19,9 20,4 20,9
2017-11-05 19,6 20,2 21,3
2017-11-07 19,9 20,1 20,4
2017-11-08 19,3 20,4 21,2
2017-11-09 20,0 20,4 21,2
2017-11-10 19,2 20,1 21,3
2017-11-11 17,6 18,9 19,6
2017-11-12 17,6 19,0 20,2
2017-11-13 19,2 20,0 20,7
2017-11-14 18,7 19,7 20,4
2017-11-17 19,6 20,4 21,2
2017-11-18 18,5 19,5 20,3
2017-11-19 17,1 18,7 20,0
2017-11-20 17,7 19,2 20,4
2017-11-21 18,8 19,8 21,4

Light level []

Date Min. Avg. Max.
2017-10-22 0 584 956
2017-10-23 0 508 949
2017-10-24 0 353 956
2017-10-25 0 321 947
2017-10-26 0 342 944
2017-10-27 0 297 962
2017-10-28 0 300 918
2017-10-29 0 338 944
2017-10-30 0 313 915
2017-10-31 0 364 940
2017-11-01 0 296 928
2017-11-02 0 298 949
2017-11-03 0 256 938
2017-11-04 0 305 921
2017-11-05 0 335 917
2017-11-07 0 3 66
2017-11-08 0 266 908
2017-11-09 0 280 889
2017-11-10 0 257 920
2017-11-11 0 295 947
2017-11-12 0 343 933
2017-11-13 0 305 877
2017-11-14 0 513 930
2017-11-17 0 320 857
2017-11-18 0 267 937
2017-11-19 0 279 929
2017-11-20 0 285 936
2017-11-21 0 405 923